Time,TemperatureF,DewpointF,PressureIn,WindDirection,WindDirectionDegrees,WindSpeedMPH,WindSpeedGustMPH,Humidity,HourlyPrecipIn,Conditions,Clouds,dailyrainin,SoftwareType,DateUTC
2013-03-05 00:00:00,-999.9,-99.9,29.81,North,32767,-999.0,0.0,255,-99.99,,,0.00,Wunderground v.1.13,2013-03-05 05:00:00,
2013-03-05 00:30:00,35.6,30.9,29.83,South,176,2.0,2.0,83,0.00,,,0.00,Wunderground v.1.13,2013-03-05 05:30:00,
2013-03-05 01:00:00,35.5,30.8,29.84,SSE,150,1.0,1.0,83,0.00,,,0.00,Wunderground v.1.13,2013-03-05 06:00:00,
2013-03-05 01:30:00,35.5,30.5,29.85,SW,230,2.0,2.0,82,0.00,,,0.00,Wunderground v.1.13,2013-03-05 06:30:00,
2013-03-05 02:00:00,35.2,30.6,29.86,West,264,1.0,1.0,83,0.00,,,0.00,Wunderground v.1.13,2013-03-05 07:00:00,
2013-03-05 02:30:00,35.2,30.9,29.87,SSW,192,2.0,2.0,84,0.00,,,0.00,Wunderground v.1.13,2013-03-05 07:30:00,
2013-03-05 03:00:00,34.6,30.8,29.89,SSW,198,0.0,0.0,86,0.00,,,0.00,Wunderground v.1.13,2013-03-05 08:00:00,
2013-03-05 03:30:00,34.7,30.9,29.90,SE,143,1.0,1.0,86,0.00,,,0.00,Wunderground v.1.13,2013-03-05 08:30:00,
2013-03-05 04:00:00,34.6,30.6,29.91,SSE,155,1.0,2.0,85,0.00,,,0.00,Wunderground v.1.13,2013-03-05 09:00:00,
2013-03-05 04:30:00,34.0,30.0,29.92,South,171,1.0,1.0,85,0.00,,,0.00,Wunderground v.1.13,2013-03-05 09:30:00,
2013-03-05 05:00:00,33.7,29.7,29.94,SSE,168,0.0,0.0,85,0.00,,,0.00,Wunderground v.1.13,2013-03-05 10:00:00,
2013-03-05 05:30:00,33.8,30.1,29.95,South,169,0.0,0.0,86,0.00,,,0.00,Wunderground v.1.13,2013-03-05 10:30:00,
2013-03-05 06:00:00,34.4,30.1,29.97,South,172,0.0,0.0,84,0.00,,,0.00,Wunderground v.1.13,2013-03-05 11:00:00,
2013-03-05 06:30:00,34.9,30.6,29.97,South,169,0.0,0.0,84,0.00,,,0.00,Wunderground v.1.13,2013-03-05 11:30:00,
2013-03-05 07:00:00,35.5,29.6,29.98,SSW,205,3.0,3.0,79,0.00,,,0.00,Wunderground v.1.13,2013-03-05 12:00:00,
2013-03-05 07:30:00,35.9,29.4,29.99,SSE,155,2.0,2.0,77,0.00,,,0.00,Wunderground v.1.13,2013-03-05 12:30:00,
2013-03-05 08:00:00,36.2,29.7,29.98,SSE,151,3.0,5.0,77,0.00,,,0.00,Wunderground v.1.13,2013-03-05 13:00:00,
2013-03-05 08:30:00,36.8,29.3,30.00,SSW,192,3.0,3.0,74,0.00,,,0.00,Wunderground v.1.13,2013-03-05 13:30:00,
2013-03-05 09:00:00,36.9,28.7,30.02,SSE,148,3.0,7.0,72,0.00,,,0.00,Wunderground v.1.13,2013-03-05 14:00:00,
2013-03-05 09:29:00,37.6,29.0,30.03,SSW,196,3.0,3.0,71,0.00,,,0.00,Wunderground v.1.13,2013-03-05 14:29:00,
2013-03-05 10:00:00,37.6,29.0,30.04,SW,236,3.0,3.0,71,0.00,,,0.00,Wunderground v.1.13,2013-03-05 15:00:00,
2013-03-05 10:30:00,39.1,29.4,30.04,SE,131,4.0,4.0,68,0.00,,,0.00,Wunderground v.1.13,2013-03-05 15:30:00,
2013-03-05 11:00:00,39.6,29.9,30.04,NNE,21,3.0,5.0,68,0.00,,,0.00,Wunderground v.1.13,2013-03-05 16:00:00,
2013-03-05 11:30:00,39.1,29.1,30.06,NNW,342,4.0,4.0,67,0.00,,,0.00,Wunderground v.1.13,2013-03-05 16:30:00,
2013-03-05 12:00:00,38.6,29.3,30.06,NE,42,2.0,2.0,69,0.00,,,0.00,Wunderground v.1.13,2013-03-05 17:00:00,
2013-03-05 12:30:00,38.0,28.7,30.07,SW,226,3.0,8.0,69,0.00,,,0.00,Wunderground v.1.13,2013-03-05 17:30:00,
2013-03-05 13:00:00,38.2,28.6,30.08,SSW,200,4.0,4.0,68,0.00,,,0.00,Wunderground v.1.13,2013-03-05 18:00:00,
2013-03-05 13:30:00,38.9,28.1,30.09,NNW,340,4.0,4.0,65,0.00,,,0.00,Wunderground v.1.13,2013-03-05 18:30:00,
2013-03-05 14:00:00,39.1,29.4,30.10,SSW,195,2.0,4.0,68,0.00,,,0.00,Wunderground v.1.13,2013-03-05 19:00:00,
2013-03-05 14:30:00,38.5,28.5,30.12,South,174,3.0,5.0,67,0.00,,,0.00,Wunderground v.1.13,2013-03-05 19:30:00,
2013-03-05 15:00:00,37.9,28.6,30.13,SSW,213,3.0,3.0,69,0.00,,,0.00,Wunderground v.1.13,2013-03-05 20:00:00,
2013-03-05 15:30:00,37.3,27.7,30.14,SW,219,2.0,2.0,68,0.00,,,0.00,Wunderground v.1.13,2013-03-05 20:30:00,
2013-03-05 16:00:00,36.5,26.9,30.16,SSE,152,3.0,3.0,68,0.00,,,0.00,Wunderground v.1.13,2013-03-05 21:00:00,
2013-03-05 16:30:00,35.6,26.8,30.15,SSE,165,2.0,2.0,70,0.00,,,0.00,Wunderground v.1.13,2013-03-05 21:30:00,
2013-03-05 17:00:00,34.9,27.8,30.18,SSW,208,2.0,2.0,75,0.00,,,0.00,Wunderground v.1.13,2013-03-05 22:00:00,
2013-03-05 17:30:00,34.6,26.2,30.20,South,172,3.0,3.0,71,0.00,,,0.00,Wunderground v.1.13,2013-03-05 22:30:00,
2013-03-05 18:00:00,34.1,26.7,30.21,West,278,2.0,2.0,74,0.00,,,0.00,Wunderground v.1.13,2013-03-05 23:00:00,
2013-03-05 18:30:00,34.0,26.6,30.22,SSW,212,3.0,3.0,74,0.00,,,0.00,Wunderground v.1.13,2013-03-05 23:30:00,
2013-03-05 19:00:00,33.8,26.4,30.23,South,172,2.0,2.0,74,0.00,,,0.00,Wunderground v.1.13,2013-03-06 00:00:00,
2013-03-05 19:30:00,33.5,26.4,30.23,ESE,112,2.0,3.0,75,0.00,,,0.00,Wunderground v.1.13,2013-03-06 00:30:00,
2013-03-05 20:00:00,33.2,26.1,30.25,WSW,246,3.0,3.0,75,0.00,,,0.00,Wunderground v.1.13,2013-03-06 01:00:00,
2013-03-05 20:30:00,32.8,26.4,30.26,SSW,213,1.0,1.0,77,0.00,,,0.00,Wunderground v.1.13,2013-03-06 01:30:00,
2013-03-05 21:00:00,32.5,26.4,30.27,SSW,198,1.0,1.0,78,0.00,,,0.00,Wunderground v.1.13,2013-03-06 02:00:00,
2013-03-05 21:30:00,32.2,26.7,30.28,SW,217,2.0,2.0,80,0.00,,,0.00,Wunderground v.1.13,2013-03-06 02:30:00,
2013-03-05 22:00:00,32.1,25.4,30.28,SSW,210,1.0,1.0,76,0.00,,,0.00,Wunderground v.1.13,2013-03-06 03:00:00,
2013-03-05 22:30:00,31.8,25.1,30.29,NW,315,1.0,1.0,76,0.00,,,0.00,Wunderground v.1.13,2013-03-06 03:30:00,
2013-03-05 23:00:00,31.5,25.4,30.29,South,189,1.0,1.0,78,0.00,,,0.00,Wunderground v.1.13,2013-03-06 04:00:00,
2013-03-05 23:30:00,31.2,24.8,30.30,South,185,2.0,2.0,77,0.00,,,0.00,Wunderground v.1.13,2013-03-06 04:30:00,